createdAt,value
2023-02-24T00:02:05.793Z,4.00
2023-02-24T00:04:38.550Z,4.00
2023-02-24T00:07:06.892Z,4.00
2023-02-24T00:09:34.501Z,4.00
2023-02-24T00:12:05.975Z,4.00
2023-02-24T00:14:35.879Z,4.00
2023-02-24T00:17:03.798Z,4.00
2023-02-24T00:19:34.929Z,3.90
2023-02-24T00:22:04.672Z,3.90
2023-02-24T00:24:32.921Z,3.90
2023-02-24T00:27:02.164Z,3.80
2023-02-24T00:29:30.409Z,3.80
2023-02-24T00:32:00.637Z,3.90
2023-02-24T00:34:33.913Z,3.90
2023-02-24T00:37:02.159Z,3.90
2023-02-24T00:39:32.819Z,3.80
2023-02-24T00:42:05.099Z,3.90
2023-02-24T00:44:41.688Z,3.80
2023-02-24T00:47:10.786Z,3.80
2023-02-24T00:49:42.635Z,3.80
2023-02-24T00:52:16.136Z,3.80
2023-02-24T00:54:44.839Z,3.80
2023-02-24T00:57:12.852Z,3.80
2023-02-24T00:59:40.498Z,3.80
2023-02-24T01:02:08.636Z,3.80
2023-02-24T01:04:37.838Z,3.70
2023-02-24T01:07:10.735Z,3.70
2023-02-24T01:09:40.478Z,3.70
2023-02-24T01:12:22.256Z,3.80
2023-02-24T01:14:52.467Z,3.80
2023-02-24T01:17:21.178Z,3.80
2023-02-24T01:19:50.002Z,3.80
2023-02-24T01:22:20.234Z,3.70
2023-02-24T01:24:48.597Z,3.80
2023-02-24T01:27:19.431Z,3.80
2023-02-24T01:29:48.053Z,3.80
2023-02-24T01:32:19.553Z,3.80
2023-02-24T01:34:51.183Z,3.80
2023-02-24T01:37:19.620Z,3.80
2023-02-24T01:39:47.927Z,3.80
2023-02-24T01:42:21.679Z,3.70
2023-02-24T01:44:51.951Z,3.70
2023-02-24T01:47:21.241Z,3.80
2023-02-24T01:49:53.841Z,3.80
2023-02-24T01:52:30.526Z,3.80
2023-02-24T01:55:10.881Z,3.80
2023-02-24T01:57:39.228Z,3.80
2023-02-24T02:00:20.436Z,3.80
2023-02-24T02:02:52.891Z,3.70
2023-02-24T02:05:21.344Z,3.70
2023-02-24T02:07:50.263Z,3.70
2023-02-24T02:10:18.610Z,3.70
2023-02-24T02:12:46.587Z,3.80
2023-02-24T02:15:20.379Z,3.80
2023-02-24T02:17:55.063Z,3.80
2023-02-24T02:21:07.060Z,3.80
2023-02-24T02:24:22.183Z,3.80
2023-02-24T02:27:45.225Z,3.70
2023-02-24T02:30:32.093Z,3.60
2023-02-24T02:33:44.244Z,3.70
2023-02-24T02:36:26.439Z,3.70
2023-02-24T02:39:03.964Z,3.70
2023-02-24T02:41:39.939Z,3.70
2023-02-24T02:44:16.484Z,3.70
2023-02-24T02:46:53.375Z,3.70
2023-02-24T02:49:30.478Z,3.70
2023-02-24T02:52:22.677Z,3.70
2023-02-24T02:54:56.286Z,3.70
2023-02-24T02:57:27.921Z,3.70
2023-02-24T03:00:29.303Z,3.70
2023-02-24T03:03:03.365Z,3.60
2023-02-24T03:05:37.251Z,3.50
2023-02-24T03:08:11.303Z,3.50
2023-02-24T03:10:44.823Z,3.50
2023-02-24T03:13:14.007Z,3.50
2023-02-24T03:15:44.970Z,3.40
2023-02-24T03:18:29.016Z,3.40
2023-02-24T03:21:24.958Z,3.40
2023-02-24T03:23:53.828Z,3.40
2023-02-24T03:26:37.822Z,3.30
2023-02-24T03:29:24.445Z,3.30
2023-02-24T03:32:14.951Z,3.40
2023-02-24T03:35:21.324Z,3.40
2023-02-24T03:37:50.142Z,3.30
2023-02-24T03:40:18.351Z,3.20
2023-02-24T03:42:48.680Z,3.20
2023-02-24T03:45:17.893Z,3.20
2023-02-24T03:47:48.155Z,3.20
2023-02-24T03:50:22.080Z,3.20
2023-02-24T03:53:12.931Z,3.20
2023-02-24T03:56:40.492Z,3.20
2023-02-24T03:59:20.073Z,3.20
2023-02-24T04:02:28.152Z,3.20
2023-02-24T04:05:15.409Z,3.20
2023-02-24T04:08:04.586Z,3.20
2023-02-24T04:10:41.206Z,3.20
2023-02-24T04:13:38.269Z,3.30
2023-02-24T04:16:36.567Z,3.30
2023-02-24T04:19:14.154Z,3.30
2023-02-24T04:21:44.462Z,3.30
2023-02-24T04:24:15.953Z,3.30
2023-02-24T04:26:47.618Z,3.30
2023-02-24T04:29:21.113Z,3.30
2023-02-24T04:31:53.373Z,3.30
2023-02-24T04:34:21.204Z,3.30
2023-02-24T04:36:49.772Z,3.30
2023-02-24T04:39:21.322Z,3.20
2023-02-24T04:41:49.571Z,3.20
2023-02-24T04:44:18.740Z,3.30
2023-02-24T04:46:47.265Z,3.30
2023-02-24T04:49:14.599Z,3.20
2023-02-24T04:51:45.051Z,3.20
2023-02-24T04:54:17.516Z,3.20
2023-02-24T04:56:50.903Z,3.30
2023-02-24T04:59:19.682Z,3.30
2023-02-24T05:01:47.668Z,3.40
2023-02-24T05:04:15.186Z,3.40
2023-02-24T05:06:44.471Z,3.40
2023-02-24T05:09:14.561Z,3.30
2023-02-24T05:11:43.817Z,3.30
2023-02-24T05:14:16.268Z,3.20
2023-02-24T05:16:44.988Z,3.20
2023-02-24T05:19:33.519Z,3.20
2023-02-24T05:22:03.287Z,3.20
2023-02-24T05:24:31.811Z,3.20
2023-02-24T05:26:59.577Z,3.30
2023-02-24T05:29:29.136Z,3.20
2023-02-24T05:32:00.680Z,3.20
2023-02-24T05:34:33.314Z,3.20
2023-02-24T05:37:04.534Z,3.20
2023-02-24T05:39:32.964Z,3.20
2023-02-24T05:42:06.132Z,3.10
2023-02-24T05:44:35.642Z,3.10
2023-02-24T05:47:05.623Z,3.20
2023-02-24T05:49:35.670Z,3.20
2023-02-24T05:52:08.968Z,3.20
2023-02-24T05:54:44.166Z,3.30
2023-02-24T05:57:15.588Z,3.30
2023-02-24T05:59:44.744Z,3.30
2023-02-24T06:02:15.204Z,3.30
2023-02-24T06:04:51.321Z,3.30
2023-02-24T06:07:22.962Z,3.20
2023-02-24T06:09:57.461Z,3.10
2023-02-24T06:12:28.209Z,3.00
2023-02-24T06:14:55.908Z,3.00
2023-02-24T06:17:24.513Z,3.00
2023-02-24T06:19:53.463Z,3.10
2023-02-24T06:22:24.320Z,3.00
2023-02-24T06:24:54.366Z,3.00
2023-02-24T06:27:24.949Z,3.10
2023-02-24T06:29:54.753Z,3.00
2023-02-24T06:32:25.398Z,3.00
2023-02-24T06:34:57.648Z,3.00
2023-02-24T06:37:25.274Z,3.00
2023-02-24T06:39:52.616Z,3.00
2023-02-24T06:42:20.014Z,3.00
2023-02-24T06:44:47.508Z,3.10
2023-02-24T06:47:18.073Z,3.10
2023-02-24T06:49:45.509Z,3.00
2023-02-24T06:52:18.694Z,3.00
2023-02-24T06:54:49.809Z,3.10
2023-02-24T06:57:17.924Z,3.00
2023-02-24T06:59:46.550Z,3.00
2023-02-24T07:02:14.874Z,3.10
2023-02-24T07:04:44.877Z,3.20
2023-02-24T07:07:14.418Z,3.20
2023-02-24T07:09:42.924Z,3.20
2023-02-24T07:12:12.707Z,3.20
2023-02-24T07:14:40.777Z,3.20
2023-02-24T07:17:08.845Z,3.10
2023-02-24T07:19:39.867Z,3.10
2023-02-24T07:22:07.492Z,3.10
2023-02-24T07:24:37.288Z,3.20
2023-02-24T07:27:22.649Z,3.30
2023-02-24T07:29:53.317Z,3.30
2023-02-24T07:32:25.869Z,3.20
2023-02-24T07:34:53.725Z,3.20
2023-02-24T07:37:23.300Z,3.20
2023-02-24T07:39:50.867Z,3.20
2023-02-24T07:42:18.416Z,3.20
2023-02-24T07:44:49.124Z,3.20
2023-02-24T07:47:17.020Z,3.20
2023-02-24T07:49:45.683Z,3.20
2023-02-24T07:52:13.060Z,3.30
2023-02-24T07:54:40.640Z,3.40
2023-02-24T07:57:14.211Z,3.50
2023-02-24T07:59:45.245Z,3.50
2023-02-24T08:02:13.976Z,3.50
2023-02-24T08:04:44.565Z,3.60
2023-02-24T08:07:14.693Z,3.60
2023-02-24T08:09:45.760Z,3.70
2023-02-24T08:12:22.018Z,3.70
2023-02-24T08:14:54.620Z,3.80
2023-02-24T08:17:26.672Z,3.80
2023-02-24T08:20:15.728Z,3.80
2023-02-24T08:22:46.910Z,3.90
2023-02-24T08:25:19.188Z,3.90
2023-02-24T08:28:07.384Z,3.90
2023-02-24T08:30:39.056Z,4.00
2023-02-24T08:33:15.997Z,4.10
2023-02-24T08:35:46.580Z,4.20
2023-02-24T08:38:17.151Z,4.30
2023-02-24T08:40:50.550Z,4.30
2023-02-24T08:43:24.066Z,4.30
2023-02-24T08:45:59.514Z,4.40
2023-02-24T08:48:37.188Z,4.40
2023-02-24T08:51:28.741Z,4.40
2023-02-24T08:53:59.409Z,4.40
2023-02-24T08:56:32.013Z,4.50
2023-02-24T08:59:05.822Z,4.50
2023-02-24T09:01:40.387Z,4.60
2023-02-24T09:04:13.268Z,4.60
2023-02-24T09:06:46.486Z,4.80
2023-02-24T09:09:21.442Z,4.90
2023-02-24T09:12:00.234Z,5.00
2023-02-24T09:14:29.695Z,5.10
2023-02-24T09:17:02.584Z,5.10
2023-02-24T09:19:52.260Z,5.10
2023-02-24T09:22:32.011Z,5.10
2023-02-24T09:25:19.098Z,5.20
2023-02-24T09:28:09.325Z,5.20
2023-02-24T09:30:39.528Z,5.30
2023-02-24T09:33:23.609Z,5.40
2023-02-24T09:36:10.285Z,5.50
2023-02-24T09:39:02.120Z,5.50
2023-02-24T09:42:04.017Z,5.50
2023-02-24T09:44:36.024Z,5.60
2023-02-24T09:47:39.866Z,5.70
2023-02-24T09:50:14.167Z,5.80
2023-02-24T09:52:42.022Z,5.90
2023-02-24T09:56:00.354Z,5.90
2023-02-24T09:58:51.125Z,6.10
2023-02-24T10:01:31.114Z,6.20
2023-02-24T10:04:36.244Z,6.30
2023-02-24T10:07:09.667Z,6.40
2023-02-24T10:10:19.815Z,6.40
2023-02-24T10:12:58.388Z,6.40
2023-02-24T10:15:58.703Z,6.30
2023-02-24T10:18:37.613Z,6.40
2023-02-24T10:21:21.369Z,6.40
2023-02-24T10:24:02.631Z,6.50
2023-02-24T10:26:51.272Z,6.50
2023-02-24T10:29:43.327Z,6.40
2023-02-24T10:32:33.926Z,6.40
2023-02-24T10:35:02.581Z,6.50
2023-02-24T10:37:31.554Z,6.60
2023-02-24T10:40:09.818Z,6.60
2023-02-24T10:42:44.550Z,6.80
2023-02-24T10:45:18.105Z,6.80
2023-02-24T10:47:57.666Z,6.70
2023-02-24T10:50:55.392Z,6.80
2023-02-24T10:53:37.835Z,6.80
2023-02-24T10:56:41.520Z,6.90
2023-02-24T10:59:42.422Z,6.90
2023-02-24T11:02:48.931Z,7.00
2023-02-24T11:05:45.867Z,7.00
2023-02-24T11:08:36.633Z,7.10
2023-02-24T11:11:30.719Z,7.20
2023-02-24T11:14:20.559Z,7.30
2023-02-24T11:17:12.306Z,7.30
2023-02-24T11:19:45.418Z,7.40
2023-02-24T11:22:20.675Z,7.50
2023-02-24T11:24:50.462Z,7.60
2023-02-24T11:27:23.393Z,7.70
2023-02-24T11:29:59.762Z,7.80
2023-02-24T11:32:36.586Z,7.80
2023-02-24T11:35:27.400Z,7.90
2023-02-24T11:38:07.719Z,8.00
2023-02-24T11:40:43.863Z,8.00
2023-02-24T11:43:18.495Z,8.00
2023-02-24T11:45:57.137Z,8.10
2023-02-24T11:48:37.465Z,8.20
2023-02-24T11:51:18.279Z,8.30
2023-02-24T11:53:57.736Z,8.30
2023-02-24T11:56:30.332Z,8.30
2023-02-24T11:59:21.328Z,8.30
2023-02-24T12:01:52.811Z,8.20
2023-02-24T12:04:35.007Z,8.10
2023-02-24T12:07:06.846Z,8.00
2023-02-24T12:09:45.143Z,8.00
2023-02-24T12:12:22.342Z,7.90
2023-02-24T12:14:58.109Z,7.90
2023-02-24T12:17:37.255Z,7.80
2023-02-24T12:20:27.637Z,7.80
2023-02-24T12:23:18.472Z,7.80
2023-02-24T12:26:09.222Z,7.80
2023-02-24T12:29:04.558Z,7.80
2023-02-24T12:31:38.178Z,7.80
2023-02-24T12:34:37.860Z,7.80
2023-02-24T12:37:17.756Z,7.90
2023-02-24T12:40:06.805Z,7.90
2023-02-24T12:43:03.708Z,7.90
2023-02-24T12:45:40.384Z,8.00
2023-02-24T12:48:10.649Z,8.00
2023-02-24T12:50:53.354Z,8.10
2023-02-24T12:53:43.451Z,8.20
2023-02-24T12:56:45.625Z,8.30
2023-02-24T12:59:20.300Z,8.30
2023-02-24T13:02:15.886Z,8.30
2023-02-24T13:04:55.700Z,8.20
2023-02-24T13:07:38.753Z,8.20
2023-02-24T13:10:33.649Z,8.30
2023-02-24T13:13:19.768Z,8.40
2023-02-24T13:15:57.396Z,8.40
2023-02-24T13:18:28.091Z,8.40
2023-02-24T13:21:23.449Z,8.50
2023-02-24T13:24:02.650Z,8.50
2023-02-24T13:26:32.295Z,8.60
2023-02-24T13:29:01.752Z,8.50
2023-02-24T13:31:45.132Z,8.60
2023-02-24T13:34:34.344Z,8.60
2023-02-24T13:37:02.221Z,8.70
2023-02-24T13:39:37.145Z,8.80
2023-02-24T13:42:32.603Z,8.90
2023-02-24T13:45:05.500Z,9.00
2023-02-24T13:47:39.473Z,9.10
2023-02-24T13:50:13.309Z,9.10
2023-02-24T13:53:12.251Z,9.10
2023-02-24T13:55:56.754Z,9.20
2023-02-24T13:58:52.609Z,9.30
2023-02-24T14:01:21.818Z,9.30
2023-02-24T14:04:19.134Z,9.40
2023-02-24T14:06:51.554Z,9.70
2023-02-24T14:09:23.705Z,9.90
2023-02-24T14:11:57.354Z,10.00
2023-02-24T14:14:26.917Z,10.10
2023-02-24T14:16:54.815Z,10.20
2023-02-24T14:19:25.719Z,10.10
2023-02-24T14:21:56.368Z,10.10
2023-02-24T14:24:27.661Z,10.00
2023-02-24T14:27:01.508Z,10.10
2023-02-24T14:29:32.122Z,10.10
2023-02-24T14:32:00.803Z,10.20
2023-02-24T14:34:31.161Z,10.20
2023-02-24T14:37:01.870Z,10.10
2023-02-24T14:39:31.705Z,10.10
2023-02-24T14:42:09.656Z,10.10
2023-02-24T14:44:46.540Z,10.00
2023-02-24T14:47:15.528Z,10.00
2023-02-24T14:49:53.353Z,10.00
2023-02-24T14:52:44.444Z,10.00
2023-02-24T14:55:23.264Z,9.90
2023-02-24T14:58:00.124Z,9.80
2023-02-24T15:00:36.188Z,9.70
2023-02-24T15:03:37.426Z,9.70
2023-02-24T15:06:09.293Z,9.70
2023-02-24T15:08:43.160Z,9.70
2023-02-24T15:11:16.802Z,9.70
2023-02-24T15:13:54.708Z,9.60
2023-02-24T15:16:44.217Z,9.60
2023-02-24T15:19:38.914Z,9.50
2023-02-24T15:22:27.036Z,9.40
2023-02-24T15:25:08.291Z,9.40
2023-02-24T15:27:35.815Z,9.50
2023-02-24T15:30:07.362Z,9.50
2023-02-24T15:32:38.014Z,9.60
2023-02-24T15:35:07.764Z,9.60
2023-02-24T15:37:42.036Z,9.60
2023-02-24T15:40:28.172Z,9.70
2023-02-24T15:42:56.857Z,9.70
2023-02-24T15:45:24.524Z,9.60
2023-02-24T15:47:56.602Z,9.60
2023-02-24T15:50:24.550Z,9.70
2023-02-24T15:52:52.374Z,9.60
2023-02-24T15:55:22.013Z,9.60
2023-02-24T15:58:00.911Z,9.70
2023-02-24T16:00:28.806Z,9.70
2023-02-24T16:02:56.424Z,9.70
2023-02-24T16:05:24.796Z,9.70
2023-02-24T16:07:53.395Z,9.60
2023-02-24T16:10:26.856Z,9.60
2023-02-24T16:12:57.294Z,9.50
2023-02-24T16:15:33.893Z,9.50
2023-02-24T16:18:02.838Z,9.50
2023-02-24T16:20:31.711Z,9.40
2023-02-24T16:23:01.568Z,9.40
2023-02-24T16:25:34.666Z,9.30
2023-02-24T16:28:02.497Z,9.30
2023-02-24T16:30:30.833Z,9.20
2023-02-24T16:33:00.001Z,9.20
2023-02-24T16:35:28.347Z,9.20
2023-02-24T16:37:55.905Z,9.20
2023-02-24T16:40:30.135Z,9.20
2023-02-24T16:42:57.883Z,9.10
2023-02-24T16:45:29.669Z,9.00
2023-02-24T16:48:02.174Z,8.70
2023-02-24T16:50:36.121Z,8.40
2023-02-24T16:53:03.688Z,8.40
2023-02-24T16:55:31.753Z,8.20
2023-02-24T16:57:59.542Z,8.00
2023-02-24T17:00:27.246Z,7.90
2023-02-24T17:02:55.036Z,7.90
2023-02-24T17:05:26.209Z,7.90
2023-02-24T17:07:56.064Z,7.80
2023-02-24T17:10:25.151Z,7.80
2023-02-24T17:12:53.005Z,7.80
2023-02-24T17:15:23.333Z,7.80
2023-02-24T17:17:51.098Z,7.80
2023-02-24T17:20:20.713Z,7.80
2023-02-24T17:22:48.659Z,7.80
2023-02-24T17:25:18.345Z,7.80
2023-02-24T17:27:45.893Z,7.70
2023-02-24T17:30:16.445Z,7.70
2023-02-24T17:32:45.434Z,7.70
2023-02-24T17:35:13.445Z,7.70
2023-02-24T17:37:41.196Z,7.80
2023-02-24T17:40:09.326Z,7.80
2023-02-24T17:42:36.796Z,7.80
2023-02-24T17:45:05.854Z,7.70
2023-02-24T17:47:34.456Z,7.70
2023-02-24T17:50:02.694Z,7.70
2023-02-24T17:52:31.349Z,7.60
2023-02-24T17:54:59.534Z,7.50
2023-02-24T17:57:29.456Z,7.50
2023-02-24T17:59:57.327Z,7.50
2023-02-24T18:02:24.822Z,7.40
2023-02-24T18:04:52.232Z,7.50
2023-02-24T18:07:21.210Z,7.60
2023-02-24T18:09:48.955Z,7.60
2023-02-24T18:12:18.691Z,7.60
2023-02-24T18:14:47.341Z,7.60
2023-02-24T18:17:17.348Z,7.50
2023-02-24T18:19:45.194Z,7.40
2023-02-24T18:22:12.861Z,7.30
2023-02-24T18:24:40.495Z,7.20
2023-02-24T18:27:09.298Z,7.20
2023-02-24T18:29:36.899Z,7.10
2023-02-24T18:32:04.991Z,7.10
2023-02-24T18:34:32.752Z,7.10
2023-02-24T18:37:00.995Z,7.20
2023-02-24T18:39:29.694Z,7.20
2023-02-24T18:41:59.488Z,7.10
2023-02-24T18:44:27.843Z,7.10
2023-02-24T18:46:55.439Z,7.10
2023-02-24T18:49:22.944Z,7.10
2023-02-24T18:51:50.749Z,7.00
2023-02-24T18:54:18.402Z,6.90
2023-02-24T18:56:45.946Z,6.80
2023-02-24T18:59:13.299Z,6.80
2023-02-24T19:01:40.981Z,6.80
2023-02-24T19:04:09.057Z,6.70
2023-02-24T19:06:38.304Z,6.90
2023-02-24T19:09:11.869Z,6.90
2023-02-24T19:11:40.793Z,6.90
2023-02-24T19:14:11.969Z,6.80
2023-02-24T19:16:40.226Z,6.80
2023-02-24T19:19:07.692Z,6.70
2023-02-24T19:21:35.094Z,6.60
2023-02-24T19:24:03.998Z,6.50
2023-02-24T19:26:31.409Z,6.50
2023-02-24T19:28:59.199Z,6.50
2023-02-24T19:31:29.948Z,6.50
2023-02-24T19:34:00.606Z,6.60
2023-02-24T19:36:29.801Z,6.60
2023-02-24T19:38:57.353Z,6.60
2023-02-24T19:41:26.449Z,6.60
2023-02-24T19:43:54.208Z,6.60
2023-02-24T19:46:22.414Z,6.50
2023-02-24T19:48:50.251Z,6.60
2023-02-24T19:51:23.567Z,6.50
2023-02-24T19:53:53.888Z,6.40
2023-02-24T19:56:29.197Z,6.40
2023-02-24T19:58:59.123Z,6.40
2023-02-24T20:01:28.887Z,6.40
2023-02-24T20:03:59.150Z,6.50
2023-02-24T20:06:35.798Z,6.50
2023-02-24T20:09:09.896Z,6.50
2023-02-24T20:11:39.148Z,6.50
2023-02-24T20:14:08.035Z,6.50
2023-02-24T20:16:37.737Z,6.40
2023-02-24T20:19:07.360Z,6.30
2023-02-24T20:21:35.589Z,6.20
2023-02-24T20:24:05.389Z,6.20
2023-02-24T20:26:33.106Z,6.20
2023-02-24T20:29:01.224Z,6.20
2023-02-24T20:31:28.836Z,6.20
2023-02-24T20:33:56.599Z,6.30
2023-02-24T20:36:26.891Z,6.30
2023-02-24T20:38:57.799Z,6.20
2023-02-24T20:41:26.716Z,6.20
2023-02-24T20:43:55.302Z,6.10
2023-02-24T20:46:25.011Z,6.10
2023-02-24T20:48:58.445Z,6.10
2023-02-24T20:51:28.302Z,6.00
2023-02-24T20:53:58.495Z,6.10
2023-02-24T20:56:27.924Z,6.10
2023-02-24T20:59:01.288Z,6.00
2023-02-24T21:01:30.703Z,6.10
2023-02-24T21:03:59.274Z,6.10
2023-02-24T21:06:28.176Z,6.10
2023-02-24T21:08:59.683Z,6.00
2023-02-24T21:11:29.794Z,6.00
2023-02-24T21:13:58.390Z,6.00
2023-02-24T21:16:27.050Z,6.10
2023-02-24T21:18:55.858Z,6.00
2023-02-24T21:21:23.495Z,6.10
2023-02-24T21:23:51.559Z,6.00
2023-02-24T21:26:19.468Z,6.00
2023-02-24T21:28:47.102Z,5.90
2023-02-24T21:31:17.598Z,5.90
2023-02-24T21:33:49.420Z,5.90
2023-02-24T21:36:18.582Z,5.80
2023-02-24T21:38:47.528Z,5.80
2023-02-24T21:41:16.094Z,5.80
2023-02-24T21:43:44.401Z,5.80
2023-02-24T21:46:14.132Z,5.80
2023-02-24T21:48:42.115Z,5.70
2023-02-24T21:51:12.073Z,5.80
2023-02-24T21:53:43.572Z,5.80
2023-02-24T21:56:17.359Z,5.80
2023-02-24T21:58:49.287Z,5.80
2023-02-24T22:01:25.968Z,5.70
2023-02-24T22:03:54.729Z,5.70
2023-02-24T22:06:23.102Z,5.70
2023-02-24T22:08:50.637Z,5.60
2023-02-24T22:11:18.972Z,5.60
2023-02-24T22:13:47.150Z,5.60
2023-02-24T22:16:20.948Z,5.60
2023-02-24T22:18:51.206Z,5.60
2023-02-24T22:21:21.493Z,5.50
2023-02-24T22:23:51.843Z,5.50
2023-02-24T22:26:25.522Z,5.60
2023-02-24T22:28:57.982Z,5.50
2023-02-24T22:31:29.746Z,5.50
2023-02-24T22:34:00.870Z,5.50
2023-02-24T22:36:31.025Z,5.40
2023-02-24T22:39:00.557Z,5.40
2023-02-24T22:41:33.633Z,5.40
2023-02-24T22:44:02.591Z,5.40
2023-02-24T22:46:34.102Z,5.40
2023-02-24T22:49:05.761Z,5.50
2023-02-24T22:51:34.205Z,5.40
2023-02-24T22:54:05.244Z,5.40
2023-02-24T22:56:32.846Z,5.40
2023-02-24T22:59:03.857Z,5.40
2023-02-24T23:01:34.895Z,5.40
2023-02-24T23:04:06.957Z,5.40
2023-02-24T23:06:38.306Z,5.40
2023-02-24T23:09:06.786Z,5.30
2023-02-24T23:11:40.933Z,5.30
2023-02-24T23:14:14.006Z,5.30
2023-02-24T23:16:44.763Z,5.30
2023-02-24T23:19:16.302Z,5.30
2023-02-24T23:21:49.699Z,5.30
2023-02-24T23:24:18.387Z,5.40
2023-02-24T23:26:54.065Z,5.40
2023-02-24T23:29:23.350Z,5.40
2023-02-24T23:31:52.323Z,5.40
2023-02-24T23:34:20.061Z,5.40
2023-02-24T23:36:48.166Z,5.40
2023-02-24T23:39:20.588Z,5.30
2023-02-24T23:41:48.133Z,5.30
2023-02-24T23:44:15.985Z,5.20
2023-02-24T23:46:43.399Z,5.20
2023-02-24T23:49:10.791Z,5.20
2023-02-24T23:51:47.994Z,5.20
2023-02-24T23:54:18.123Z,5.20
2023-02-24T23:56:46.638Z,5.10
2023-02-24T23:59:15.161Z,5.10
